Waverly, New York
Current Conditions -  °F | °C
As of 11:53 PM on Saturday 22 Nov 2014 (Local Time) from KELM Reporting Station
Overcast Overcast  
Wind Chill: 38°   Ceiling: 3600
Heat Index: 43°   Visibility: 10mi
Dew Point: 35°   Wind: 8mph
Humidity: 74%   Direction: 250°WSW
Pressure: 30.07"   Gusts: NA
Location:  42.01°N, 76.53°W
Report Text: KELM 230453Z AUTO 25007KT 10SM OVC036 06/02 A3007 RMK AO2 RAE16 SLP190 P0000 T00610017 400671133
Loading
Personal Weather Stations






























Interactive Weather Map New forecast layout! Learn more

10-Day Weather Forecast

Advertisements
Track Severe Weather on mobile